sensor_id;sensor_type;location;lat;lon;timestamp;P1;durP1;ratioP1;P2;durP2;ratioP2
691;SDS011;328;50.086;8.576;2022-12-29T00:00:13;2.87;;;1.83;;
691;SDS011;328;50.086;8.576;2022-12-29T00:02:41;3.20;;;1.50;;
691;SDS011;328;50.086;8.576;2022-12-29T00:05:09;3.40;;;2.20;;
691;SDS011;328;50.086;8.576;2022-12-29T00:07:37;3.00;;;1.50;;
691;SDS011;328;50.086;8.576;2022-12-29T00:10:06;4.33;;;1.90;;
691;SDS011;328;50.086;8.576;2022-12-29T00:12:34;6.80;;;1.77;;
691;SDS011;328;50.086;8.576;2022-12-29T00:15:15;1.80;;;1.13;;
691;SDS011;328;50.086;8.576;2022-12-29T00:18:00;2.23;;;1.67;;
691;SDS011;328;50.086;8.576;2022-12-29T00:20:28;4.43;;;1.87;;
691;SDS011;328;50.086;8.576;2022-12-29T00:23:15;2.50;;;1.87;;
691;SDS011;328;50.086;8.576;2022-12-29T00:26:02;4.50;;;2.20;;
691;SDS011;328;50.086;8.576;2022-12-29T00:28:48;2.83;;;1.30;;
691;SDS011;328;50.086;8.576;2022-12-29T00:31:37;3.00;;;1.50;;
691;SDS011;328;50.086;8.576;2022-12-29T00:34:23;2.30;;;1.47;;
691;SDS011;328;50.086;8.576;2022-12-29T00:37:08;4.00;;;2.20;;
691;SDS011;328;50.086;8.576;2022-12-29T00:39:37;3.43;;;1.70;;
691;SDS011;328;50.086;8.576;2022-12-29T00:42:22;1.70;;;1.20;;
691;SDS011;328;50.086;8.576;2022-12-29T00:45:08;7.90;;;1.70;;
691;SDS011;328;50.086;8.576;2022-12-29T00:47:35;3.20;;;1.60;;
691;SDS011;328;50.086;8.576;2022-12-29T00:50:06;3.90;;;2.10;;
691;SDS011;328;50.086;8.576;2022-12-29T00:52:33;3.77;;;1.63;;
691;SDS011;328;50.086;8.576;2022-12-29T00:55:02;2.43;;;1.40;;
691;SDS011;328;50.086;8.576;2022-12-29T00:57:30;1.93;;;1.50;;
691;SDS011;328;50.086;8.576;2022-12-29T00:59:58;2.20;;;1.73;;
691;SDS011;328;50.086;8.576;2022-12-29T01:02:25;3.43;;;1.30;;
691;SDS011;328;50.086;8.576;2022-12-29T01:04:53;2.93;;;1.60;;
691;SDS011;328;50.086;8.576;2022-12-29T01:07:21;2.47;;;1.40;;
691;SDS011;328;50.086;8.576;2022-12-29T01:09:49;1.77;;;1.30;;
691;SDS011;328;50.086;8.576;2022-12-29T01:12:35;1.77;;;1.30;;
691;SDS011;328;50.086;8.576;2022-12-29T01:15:11;1.80;;;1.20;;
691;SDS011;328;50.086;8.576;2022-12-29T01:17:40;2.40;;;1.50;;
691;SDS011;328;50.086;8.576;2022-12-29T01:20:08;2.37;;;1.30;;
691;SDS011;328;50.086;8.576;2022-12-29T01:22:36;1.87;;;1.20;;
691;SDS011;328;50.086;8.576;2022-12-29T01:25:04;2.70;;;1.10;;
691;SDS011;328;50.086;8.576;2022-12-29T01:27:34;2.77;;;1.10;;
691;SDS011;328;50.086;8.576;2022-12-29T01:30:02;1.27;;;1.10;;
691;SDS011;328;50.086;8.576;2022-12-29T01:32:30;1.80;;;1.33;;
691;SDS011;328;50.086;8.576;2022-12-29T01:34:57;1.67;;;1.20;;
691;SDS011;328;50.086;8.576;2022-12-29T01:37:25;1.80;;;1.20;;
691;SDS011;328;50.086;8.576;2022-12-29T01:39:53;4.97;;;1.10;;
691;SDS011;328;50.086;8.576;2022-12-29T01:42:22;2.17;;;1.10;;
691;SDS011;328;50.086;8.576;2022-12-29T01:44:54;4.00;;;1.30;;
691;SDS011;328;50.086;8.576;2022-12-29T01:47:25;1.30;;;1.20;;
691;SDS011;328;50.086;8.576;2022-12-29T01:49:56;1.70;;;1.20;;
691;SDS011;328;50.086;8.576;2022-12-29T01:52:26;2.43;;;1.07;;
691;SDS011;328;50.086;8.576;2022-12-29T01:54:55;1.50;;;1.07;;
691;SDS011;328;50.086;8.576;2022-12-29T01:57:24;4.30;;;1.40;;
691;SDS011;328;50.086;8.576;2022-12-29T01:59:55;2.10;;;1.27;;
691;SDS011;328;50.086;8.576;2022-12-29T02:02:23;3.20;;;1.50;;
691;SDS011;328;50.086;8.576;2022-12-29T02:04:51;1.90;;;1.10;;
691;SDS011;328;50.086;8.576;2022-12-29T02:07:26;1.20;;;1.03;;
691;SDS011;328;50.086;8.576;2022-12-29T02:09:55;1.70;;;1.23;;
691;SDS011;328;50.086;8.576;2022-12-29T02:12:23;1.27;;;1.10;;
691;SDS011;328;50.086;8.576;2022-12-29T02:14:51;1.40;;;0.90;;
691;SDS011;328;50.086;8.576;2022-12-29T02:17:25;1.97;;;1.10;;
691;SDS011;328;50.086;8.576;2022-12-29T02:20:05;1.30;;;1.10;;
691;SDS011;328;50.086;8.576;2022-12-29T02:22:46;1.43;;;1.10;;
691;SDS011;328;50.086;8.576;2022-12-29T02:25:33;2.53;;;1.10;;
691;SDS011;328;50.086;8.576;2022-12-29T02:28:18;3.80;;;1.67;;
691;SDS011;328;50.086;8.576;2022-12-29T02:31:04;1.80;;;1.07;;
691;SDS011;328;50.086;8.576;2022-12-29T02:33:41;1.63;;;0.80;;
691;SDS011;328;50.086;8.576;2022-12-29T02:36:17;1.40;;;1.03;;
691;SDS011;328;50.086;8.576;2022-12-29T02:38:50;3.07;;;1.03;;
691;SDS011;328;50.086;8.576;2022-12-29T02:41:25;1.73;;;1.20;;
691;SDS011;328;50.086;8.576;2022-12-29T02:43:59;2.27;;;1.00;;
691;SDS011;328;50.086;8.576;2022-12-29T02:46:34;4.33;;;1.20;;
691;SDS011;328;50.086;8.576;2022-12-29T02:49:05;1.00;;;0.67;;
691;SDS011;328;50.086;8.576;2022-12-29T02:51:40;1.93;;;1.10;;
691;SDS011;328;50.086;8.576;2022-12-29T02:54:11;1.13;;;0.80;;
691;SDS011;328;50.086;8.576;2022-12-29T02:56:56;1.23;;;1.00;;
691;SDS011;328;50.086;8.576;2022-12-29T02:59:24;2.23;;;2.03;;
691;SDS011;328;50.086;8.576;2022-12-29T03:01:58;3.40;;;1.33;;
691;SDS011;328;50.086;8.576;2022-12-29T03:04:50;1.20;;;0.80;;
691;SDS011;328;50.086;8.576;2022-12-29T03:07:27;2.07;;;0.90;;
691;SDS011;328;50.086;8.576;2022-12-29T03:10:01;1.27;;;0.87;;
691;SDS011;328;50.086;8.576;2022-12-29T03:12:36;2.60;;;1.43;;
691;SDS011;328;50.086;8.576;2022-12-29T03:15:26;1.13;;;0.80;;
691;SDS011;328;50.086;8.576;2022-12-29T03:18:15;1.10;;;0.83;;
691;SDS011;328;50.086;8.576;2022-12-29T03:20:48;1.60;;;1.10;;
691;SDS011;328;50.086;8.576;2022-12-29T03:23:18;1.10;;;1.00;;
691;SDS011;328;50.086;8.576;2022-12-29T03:25:47;1.30;;;1.10;;
691;SDS011;328;50.086;8.576;2022-12-29T03:28:17;1.00;;;0.73;;
691;SDS011;328;50.086;8.576;2022-12-29T03:30:46;2.80;;;0.80;;
691;SDS011;328;50.086;8.576;2022-12-29T03:33:16;2.33;;;1.50;;
691;SDS011;328;50.086;8.576;2022-12-29T03:35:45;1.27;;;0.80;;
691;SDS011;328;50.086;8.576;2022-12-29T03:38:16;1.80;;;1.00;;
691;SDS011;328;50.086;8.576;2022-12-29T03:40:46;1.90;;;1.10;;
691;SDS011;328;50.086;8.576;2022-12-29T03:43:15;1.20;;;0.83;;
691;SDS011;328;50.086;8.576;2022-12-29T03:45:44;1.57;;;1.03;;
691;SDS011;328;50.086;8.576;2022-12-29T03:48:11;1.40;;;1.03;;
691;SDS011;328;50.086;8.576;2022-12-29T03:50:40;1.53;;;1.00;;
691;SDS011;328;50.086;8.576;2022-12-29T03:53:08;2.13;;;1.07;;
691;SDS011;328;50.086;8.576;2022-12-29T03:55:35;1.30;;;1.00;;
691;SDS011;328;50.086;8.576;2022-12-29T03:58:03;2.27;;;1.00;;
691;SDS011;328;50.086;8.576;2022-12-29T04:00:30;2.70;;;0.97;;
691;SDS011;328;50.086;8.576;2022-12-29T04:02:58;1.53;;;0.97;;
691;SDS011;328;50.086;8.576;2022-12-29T04:05:26;2.23;;;1.00;;
691;SDS011;328;50.086;8.576;2022-12-29T04:07:54;2.40;;;1.30;;
691;SDS011;328;50.086;8.576;2022-12-29T04:10:22;2.50;;;1.33;;
691;SDS011;328;50.086;8.576;2022-12-29T04:12:49;1.43;;;1.10;;
691;SDS011;328;50.086;8.576;2022-12-29T04:15:17;1.37;;;1.10;;
691;SDS011;328;50.086;8.576;2022-12-29T04:17:44;3.10;;;1.67;;
691;SDS011;328;50.086;8.576;2022-12-29T04:20:12;1.17;;;0.80;;
691;SDS011;328;50.086;8.576;2022-12-29T04:22:59;1.80;;;1.10;;
691;SDS011;328;50.086;8.576;2022-12-29T04:25:27;1.33;;;0.90;;
691;SDS011;328;50.086;8.576;2022-12-29T04:27:55;1.97;;;1.20;;
691;SDS011;328;50.086;8.576;2022-12-29T04:30:22;1.53;;;1.23;;
691;SDS011;328;50.086;8.576;2022-12-29T04:32:50;2.03;;;1.10;;
691;SDS011;328;50.086;8.576;2022-12-29T04:35:17;1.50;;;1.10;;
691;SDS011;328;50.086;8.576;2022-12-29T04:37:44;2.00;;;1.37;;
691;SDS011;328;50.086;8.576;2022-12-29T04:40:13;3.10;;;1.03;;
691;SDS011;328;50.086;8.576;2022-12-29T04:42:41;1.87;;;1.10;;
691;SDS011;328;50.086;8.576;2022-12-29T04:45:09;3.63;;;1.40;;
691;SDS011;328;50.086;8.576;2022-12-29T04:47:37;2.03;;;1.30;;
691;SDS011;328;50.086;8.576;2022-12-29T04:50:05;1.83;;;0.90;;
691;SDS011;328;50.086;8.576;2022-12-29T04:52:33;1.80;;;0.90;;
691;SDS011;328;50.086;8.576;2022-12-29T04:55:01;1.10;;;1.00;;
691;SDS011;328;50.086;8.576;2022-12-29T04:57:30;2.50;;;0.97;;
691;SDS011;328;50.086;8.576;2022-12-29T04:59:58;1.87;;;0.90;;
691;SDS011;328;50.086;8.576;2022-12-29T05:02:26;2.60;;;1.17;;
691;SDS011;328;50.086;8.576;2022-12-29T05:04:53;3.70;;;1.50;;
691;SDS011;328;50.086;8.576;2022-12-29T05:07:21;2.20;;;1.10;;
691;SDS011;328;50.086;8.576;2022-12-29T05:09:48;1.27;;;0.90;;
691;SDS011;328;50.086;8.576;2022-12-29T05:12:16;1.30;;;1.00;;
691;SDS011;328;50.086;8.576;2022-12-29T05:14:45;2.90;;;1.70;;
691;SDS011;328;50.086;8.576;2022-12-29T05:17:12;3.27;;;1.33;;
691;SDS011;328;50.086;8.576;2022-12-29T05:19:40;2.40;;;1.00;;
691;SDS011;328;50.086;8.576;2022-12-29T05:22:07;1.67;;;1.17;;
691;SDS011;328;50.086;8.576;2022-12-29T05:24:35;1.00;;;0.80;;
691;SDS011;328;50.086;8.576;2022-12-29T05:27:02;2.90;;;1.10;;
691;SDS011;328;50.086;8.576;2022-12-29T05:29:30;1.40;;;0.80;;
691;SDS011;328;50.086;8.576;2022-12-29T05:31:59;3.53;;;1.13;;
691;SDS011;328;50.086;8.576;2022-12-29T05:34:26;2.17;;;1.23;;
691;SDS011;328;50.086;8.576;2022-12-29T05:36:54;1.30;;;0.97;;
691;SDS011;328;50.086;8.576;2022-12-29T05:39:21;1.10;;;0.80;;
691;SDS011;328;50.086;8.576;2022-12-29T05:41:49;1.40;;;1.10;;
691;SDS011;328;50.086;8.576;2022-12-29T05:44:16;3.03;;;1.20;;
691;SDS011;328;50.086;8.576;2022-12-29T05:46:44;1.77;;;0.90;;
691;SDS011;328;50.086;8.576;2022-12-29T05:49:13;1.40;;;1.17;;
691;SDS011;328;50.086;8.576;2022-12-29T05:51:41;2.50;;;1.43;;
691;SDS011;328;50.086;8.576;2022-12-29T05:54:08;1.40;;;0.90;;
691;SDS011;328;50.086;8.576;2022-12-29T05:56:36;1.50;;;1.03;;
691;SDS011;328;50.086;8.576;2022-12-29T05:59:03;1.80;;;1.00;;
691;SDS011;328;50.086;8.576;2022-12-29T06:01:31;1.97;;;1.13;;
691;SDS011;328;50.086;8.576;2022-12-29T06:04:00;1.83;;;1.30;;
691;SDS011;328;50.086;8.576;2022-12-29T06:06:29;3.17;;;1.27;;
691;SDS011;328;50.086;8.576;2022-12-29T06:08:56;3.93;;;1.93;;
691;SDS011;328;50.086;8.576;2022-12-29T06:11:24;1.47;;;0.87;;
691;SDS011;328;50.086;8.576;2022-12-29T06:13:51;3.33;;;1.27;;
691;SDS011;328;50.086;8.576;2022-12-29T06:16:19;1.43;;;1.00;;
691;SDS011;328;50.086;8.576;2022-12-29T06:18:47;1.43;;;0.70;;
691;SDS011;328;50.086;8.576;2022-12-29T06:21:14;3.27;;;1.00;;
691;SDS011;328;50.086;8.576;2022-12-29T06:23:43;4.23;;;1.20;;
691;SDS011;328;50.086;8.576;2022-12-29T06:26:11;9.03;;;1.60;;
691;SDS011;328;50.086;8.576;2022-12-29T06:28:39;1.03;;;0.80;;
691;SDS011;328;50.086;8.576;2022-12-29T06:31:08;1.20;;;0.70;;
691;SDS011;328;50.086;8.576;2022-12-29T06:33:36;2.43;;;0.90;;
691;SDS011;328;50.086;8.576;2022-12-29T06:36:04;1.80;;;1.20;;
691;SDS011;328;50.086;8.576;2022-12-29T06:38:32;0.90;;;0.80;;
691;SDS011;328;50.086;8.576;2022-12-29T06:41:02;1.57;;;1.47;;
691;SDS011;328;50.086;8.576;2022-12-29T06:43:30;2.07;;;1.33;;
691;SDS011;328;50.086;8.576;2022-12-29T06:45:58;1.17;;;0.90;;
691;SDS011;328;50.086;8.576;2022-12-29T06:48:26;2.07;;;1.20;;
691;SDS011;328;50.086;8.576;2022-12-29T06:50:53;1.63;;;0.80;;
691;SDS011;328;50.086;8.576;2022-12-29T06:53:21;2.30;;;1.27;;
691;SDS011;328;50.086;8.576;2022-12-29T06:55:48;1.30;;;1.00;;
691;SDS011;328;50.086;8.576;2022-12-29T06:58:17;2.50;;;1.50;;
691;SDS011;328;50.086;8.576;2022-12-29T07:00:45;2.83;;;1.50;;
691;SDS011;328;50.086;8.576;2022-12-29T07:03:13;1.10;;;0.90;;
691;SDS011;328;50.086;8.576;2022-12-29T07:05:40;2.00;;;1.37;;
691;SDS011;328;50.086;8.576;2022-12-29T07:08:08;5.87;;;1.30;;
691;SDS011;328;50.086;8.576;2022-12-29T07:10:35;2.07;;;1.20;;
691;SDS011;328;50.086;8.576;2022-12-29T07:13:03;1.50;;;1.23;;
691;SDS011;328;50.086;8.576;2022-12-29T07:15:31;2.67;;;2.47;;
691;SDS011;328;50.086;8.576;2022-12-29T07:17:59;1.30;;;1.00;;
691;SDS011;328;50.086;8.576;2022-12-29T07:20:26;7.03;;;1.43;;
691;SDS011;328;50.086;8.576;2022-12-29T07:22:54;1.30;;;1.10;;
691;SDS011;328;50.086;8.576;2022-12-29T07:25:21;2.37;;;1.63;;
691;SDS011;328;50.086;8.576;2022-12-29T07:27:49;2.93;;;1.10;;
691;SDS011;328;50.086;8.576;2022-12-29T07:30:17;1.47;;;1.20;;
691;SDS011;328;50.086;8.576;2022-12-29T07:32:46;1.70;;;1.10;;
691;SDS011;328;50.086;8.576;2022-12-29T07:35:13;2.20;;;1.57;;
691;SDS011;328;50.086;8.576;2022-12-29T07:37:42;2.00;;;1.40;;
691;SDS011;328;50.086;8.576;2022-12-29T07:40:10;1.57;;;1.13;;
691;SDS011;328;50.086;8.576;2022-12-29T07:42:39;2.07;;;1.50;;
691;SDS011;328;50.086;8.576;2022-12-29T07:45:07;1.90;;;1.50;;
691;SDS011;328;50.086;8.576;2022-12-29T07:47:36;2.33;;;1.40;;
691;SDS011;328;50.086;8.576;2022-12-29T07:50:05;4.83;;;1.70;;
691;SDS011;328;50.086;8.576;2022-12-29T07:52:33;2.60;;;1.40;;
691;SDS011;328;50.086;8.576;2022-12-29T07:55:01;8.20;;;1.43;;
691;SDS011;328;50.086;8.576;2022-12-29T07:57:28;3.33;;;1.30;;
691;SDS011;328;50.086;8.576;2022-12-29T07:59:57;0.90;;;0.80;;
691;SDS011;328;50.086;8.576;2022-12-29T08:02:25;3.03;;;1.27;;
691;SDS011;328;50.086;8.576;2022-12-29T08:04:53;1.60;;;1.00;;
691;SDS011;328;50.086;8.576;2022-12-29T08:07:22;2.47;;;1.83;;
691;SDS011;328;50.086;8.576;2022-12-29T08:09:49;2.80;;;1.50;;
691;SDS011;328;50.086;8.576;2022-12-29T08:12:17;2.17;;;1.40;;
691;SDS011;328;50.086;8.576;2022-12-29T08:14:44;1.87;;;1.40;;
691;SDS011;328;50.086;8.576;2022-12-29T08:17:12;2.50;;;1.30;;
691;SDS011;328;50.086;8.576;2022-12-29T08:19:39;2.50;;;1.30;;
691;SDS011;328;50.086;8.576;2022-12-29T08:22:08;4.47;;;1.47;;
691;SDS011;328;50.086;8.576;2022-12-29T08:24:37;1.93;;;1.20;;
691;SDS011;328;50.086;8.576;2022-12-29T08:27:05;2.50;;;2.00;;
691;SDS011;328;50.086;8.576;2022-12-29T08:29:44;3.00;;;1.57;;
691;SDS011;328;50.086;8.576;2022-12-29T08:32:12;2.40;;;1.70;;
691;SDS011;328;50.086;8.576;2022-12-29T08:34:40;2.23;;;1.67;;
691;SDS011;328;50.086;8.576;2022-12-29T08:37:07;2.03;;;1.83;;
691;SDS011;328;50.086;8.576;2022-12-29T08:39:35;1.90;;;1.70;;
691;SDS011;328;50.086;8.576;2022-12-29T08:42:03;2.67;;;1.57;;
691;SDS011;328;50.086;8.576;2022-12-29T08:44:32;2.47;;;1.70;;
691;SDS011;328;50.086;8.576;2022-12-29T08:46:59;2.70;;;1.90;;
691;SDS011;328;50.086;8.576;2022-12-29T08:49:27;2.30;;;1.70;;
691;SDS011;328;50.086;8.576;2022-12-29T08:51:54;3.07;;;1.77;;
691;SDS011;328;50.086;8.576;2022-12-29T08:54:22;1.43;;;1.23;;
691;SDS011;328;50.086;8.576;2022-12-29T08:56:50;2.30;;;1.93;;
691;SDS011;328;50.086;8.576;2022-12-29T08:59:19;3.33;;;2.13;;
691;SDS011;328;50.086;8.576;2022-12-29T09:01:46;2.27;;;1.87;;
691;SDS011;328;50.086;8.576;2022-12-29T09:04:14;4.07;;;2.07;;
691;SDS011;328;50.086;8.576;2022-12-29T09:06:43;6.73;;;2.37;;
691;SDS011;328;50.086;8.576;2022-12-29T09:09:11;2.90;;;2.40;;
691;SDS011;328;50.086;8.576;2022-12-29T09:11:39;3.30;;;1.87;;
691;SDS011;328;50.086;8.576;2022-12-29T09:14:07;4.33;;;2.60;;
691;SDS011;328;50.086;8.576;2022-12-29T09:16:36;3.30;;;2.27;;
691;SDS011;328;50.086;8.576;2022-12-29T09:19:04;7.20;;;4.93;;
691;SDS011;328;50.086;8.576;2022-12-29T09:21:31;5.00;;;2.97;;
691;SDS011;328;50.086;8.576;2022-12-29T09:23:59;3.53;;;2.40;;
691;SDS011;328;50.086;8.576;2022-12-29T09:26:26;4.90;;;3.00;;
691;SDS011;328;50.086;8.576;2022-12-29T09:28:54;2.87;;;2.13;;
691;SDS011;328;50.086;8.576;2022-12-29T09:31:22;4.40;;;2.27;;
691;SDS011;328;50.086;8.576;2022-12-29T09:33:52;2.97;;;2.17;;
691;SDS011;328;50.086;8.576;2022-12-29T09:36:19;7.00;;;3.20;;
691;SDS011;328;50.086;8.576;2022-12-29T09:38:47;3.63;;;2.67;;
691;SDS011;328;50.086;8.576;2022-12-29T09:41:16;5.20;;;2.60;;
691;SDS011;328;50.086;8.576;2022-12-29T09:43:57;7.10;;;3.60;;
691;SDS011;328;50.086;8.576;2022-12-29T09:46:32;5.97;;;2.40;;
691;SDS011;328;50.086;8.576;2022-12-29T09:49:06;4.43;;;3.00;;
691;SDS011;328;50.086;8.576;2022-12-29T09:51:37;2.50;;;2.10;;
691;SDS011;328;50.086;8.576;2022-12-29T09:54:13;4.40;;;2.63;;
691;SDS011;328;50.086;8.576;2022-12-29T09:56:48;6.40;;;3.20;;
691;SDS011;328;50.086;8.576;2022-12-29T09:59:17;9.23;;;3.07;;
691;SDS011;328;50.086;8.576;2022-12-29T10:01:49;3.30;;;2.83;;
691;SDS011;328;50.086;8.576;2022-12-29T10:04:21;2.70;;;2.23;;
691;SDS011;328;50.086;8.576;2022-12-29T10:06:51;4.27;;;2.27;;
691;SDS011;328;50.086;8.576;2022-12-29T10:09:43;2.60;;;1.93;;
691;SDS011;328;50.086;8.576;2022-12-29T10:12:15;2.70;;;1.60;;
691;SDS011;328;50.086;8.576;2022-12-29T10:14:56;2.53;;;1.33;;
691;SDS011;328;50.086;8.576;2022-12-29T10:17:29;1.90;;;1.60;;
691;SDS011;328;50.086;8.576;2022-12-29T10:20:13;2.20;;;1.30;;
691;SDS011;328;50.086;8.576;2022-12-29T10:22:57;1.87;;;1.47;;
691;SDS011;328;50.086;8.576;2022-12-29T10:25:34;1.83;;;1.03;;
691;SDS011;328;50.086;8.576;2022-12-29T10:28:05;1.47;;;1.00;;
691;SDS011;328;50.086;8.576;2022-12-29T10:30:36;1.67;;;0.90;;
691;SDS011;328;50.086;8.576;2022-12-29T10:33:05;1.90;;;1.20;;
691;SDS011;328;50.086;8.576;2022-12-29T10:35:36;1.27;;;0.80;;
691;SDS011;328;50.086;8.576;2022-12-29T10:38:10;3.03;;;2.00;;
691;SDS011;328;50.086;8.576;2022-12-29T10:40:42;1.20;;;0.80;;
691;SDS011;328;50.086;8.576;2022-12-29T10:43:15;1.80;;;0.90;;
691;SDS011;328;50.086;8.576;2022-12-29T10:45:46;2.90;;;1.10;;
691;SDS011;328;50.086;8.576;2022-12-29T10:48:15;2.30;;;1.27;;
691;SDS011;328;50.086;8.576;2022-12-29T10:50:55;1.83;;;0.90;;
691;SDS011;328;50.086;8.576;2022-12-29T10:53:29;2.83;;;1.27;;
691;SDS011;328;50.086;8.576;2022-12-29T10:55:59;1.10;;;0.97;;
691;SDS011;328;50.086;8.576;2022-12-29T10:58:27;1.47;;;1.13;;
691;SDS011;328;50.086;8.576;2022-12-29T11:00:58;5.60;;;1.10;;
691;SDS011;328;50.086;8.576;2022-12-29T11:03:39;2.13;;;0.90;;
691;SDS011;328;50.086;8.576;2022-12-29T11:06:15;1.47;;;0.90;;
691;SDS011;328;50.086;8.576;2022-12-29T11:08:49;1.30;;;0.70;;
691;SDS011;328;50.086;8.576;2022-12-29T11:11:22;2.20;;;0.97;;
691;SDS011;328;50.086;8.576;2022-12-29T11:13:56;1.10;;;0.60;;
691;SDS011;328;50.086;8.576;2022-12-29T11:16:29;1.30;;;0.60;;
691;SDS011;328;50.086;8.576;2022-12-29T11:18:59;1.90;;;0.70;;
691;SDS011;328;50.086;8.576;2022-12-29T11:21:31;1.90;;;0.73;;
691;SDS011;328;50.086;8.576;2022-12-29T11:24:00;1.93;;;0.70;;
691;SDS011;328;50.086;8.576;2022-12-29T11:26:29;0.97;;;0.60;;
691;SDS011;328;50.086;8.576;2022-12-29T11:29:05;1.07;;;0.60;;
691;SDS011;328;50.086;8.576;2022-12-29T11:31:44;2.27;;;0.90;;
691;SDS011;328;50.086;8.576;2022-12-29T11:34:16;1.40;;;0.67;;
691;SDS011;328;50.086;8.576;2022-12-29T11:36:47;0.90;;;0.80;;
691;SDS011;328;50.086;8.576;2022-12-29T11:39:23;1.10;;;0.70;;
691;SDS011;328;50.086;8.576;2022-12-29T11:41:53;1.27;;;0.70;;
691;SDS011;328;50.086;8.576;2022-12-29T11:44:21;0.90;;;0.60;;
691;SDS011;328;50.086;8.576;2022-12-29T11:46:49;2.17;;;0.60;;
691;SDS011;328;50.086;8.576;2022-12-29T11:49:19;1.40;;;0.60;;
691;SDS011;328;50.086;8.576;2022-12-29T11:51:49;2.23;;;0.67;;
691;SDS011;328;50.086;8.576;2022-12-29T11:54:18;1.60;;;0.77;;
691;SDS011;328;50.086;8.576;2022-12-29T11:56:49;1.73;;;0.90;;
691;SDS011;328;50.086;8.576;2022-12-29T11:59:24;8.80;;;1.03;;
691;SDS011;328;50.086;8.576;2022-12-29T12:02:11;2.60;;;0.93;;
691;SDS011;328;50.086;8.576;2022-12-29T12:05:12;1.20;;;0.70;;
691;SDS011;328;50.086;8.576;2022-12-29T12:07:44;4.00;;;0.87;;
691;SDS011;328;50.086;8.576;2022-12-29T12:13:02;2.00;;;0.67;;
691;SDS011;328;50.086;8.576;2022-12-29T12:15:35;0.83;;;0.60;;
691;SDS011;328;50.086;8.576;2022-12-29T12:18:12;3.87;;;0.60;;
691;SDS011;328;50.086;8.576;2022-12-29T12:20:45;3.13;;;0.60;;
691;SDS011;328;50.086;8.576;2022-12-29T12:23:18;2.40;;;0.70;;
691;SDS011;328;50.086;8.576;2022-12-29T12:26:04;3.00;;;1.20;;
691;SDS011;328;50.086;8.576;2022-12-29T12:28:40;1.90;;;0.70;;
691;SDS011;328;50.086;8.576;2022-12-29T12:31:15;1.83;;;0.60;;
691;SDS011;328;50.086;8.576;2022-12-29T12:33:46;2.37;;;0.70;;
691;SDS011;328;50.086;8.576;2022-12-29T12:36:20;3.13;;;0.60;;
691;SDS011;328;50.086;8.576;2022-12-29T12:38:57;3.50;;;0.70;;
691;SDS011;328;50.086;8.576;2022-12-29T12:41:32;2.10;;;0.60;;
691;SDS011;328;50.086;8.576;2022-12-29T12:44:10;2.43;;;0.83;;
691;SDS011;328;50.086;8.576;2022-12-29T12:46:42;4.10;;;0.67;;
691;SDS011;328;50.086;8.576;2022-12-29T12:49:34;1.07;;;0.70;;
691;SDS011;328;50.086;8.576;2022-12-29T12:52:12;4.73;;;0.83;;
691;SDS011;328;50.086;8.576;2022-12-29T12:54:49;1.47;;;0.70;;
691;SDS011;328;50.086;8.576;2022-12-29T12:57:27;1.30;;;0.70;;
691;SDS011;328;50.086;8.576;2022-12-29T13:00:02;3.33;;;0.87;;
691;SDS011;328;50.086;8.576;2022-12-29T13:02:37;2.20;;;1.87;;
691;SDS011;328;50.086;8.576;2022-12-29T13:05:16;1.87;;;0.87;;
691;SDS011;328;50.086;8.576;2022-12-29T13:07:58;1.10;;;0.80;;
691;SDS011;328;50.086;8.576;2022-12-29T13:10:38;2.33;;;0.67;;
691;SDS011;328;50.086;8.576;2022-12-29T13:13:35;1.30;;;0.80;;
691;SDS011;328;50.086;8.576;2022-12-29T13:16:11;2.10;;;0.70;;
691;SDS011;328;50.086;8.576;2022-12-29T13:18:44;2.63;;;0.70;;
691;SDS011;328;50.086;8.576;2022-12-29T13:21:15;2.30;;;1.07;;
691;SDS011;328;50.086;8.576;2022-12-29T13:23:51;1.30;;;0.80;;
691;SDS011;328;50.086;8.576;2022-12-29T13:26:25;1.87;;;0.80;;
691;SDS011;328;50.086;8.576;2022-12-29T13:28:57;3.53;;;0.80;;
691;SDS011;328;50.086;8.576;2022-12-29T13:31:30;7.30;;;0.90;;
691;SDS011;328;50.086;8.576;2022-12-29T13:34:04;6.53;;;0.80;;
691;SDS011;328;50.086;8.576;2022-12-29T13:36:39;1.00;;;0.63;;
691;SDS011;328;50.086;8.576;2022-12-29T13:39:13;2.33;;;0.70;;
691;SDS011;328;50.086;8.576;2022-12-29T13:41:48;2.00;;;0.80;;
691;SDS011;328;50.086;8.576;2022-12-29T13:44:18;2.40;;;0.70;;
691;SDS011;328;50.086;8.576;2022-12-29T13:46:49;3.47;;;0.97;;
691;SDS011;328;50.086;8.576;2022-12-29T13:49:18;1.50;;;1.00;;
691;SDS011;328;50.086;8.576;2022-12-29T13:51:47;1.03;;;0.80;;
691;SDS011;328;50.086;8.576;2022-12-29T13:54:25;1.30;;;0.67;;
691;SDS011;328;50.086;8.576;2022-12-29T13:57:02;4.13;;;0.87;;
691;SDS011;328;50.086;8.576;2022-12-29T13:59:36;4.60;;;0.60;;
691;SDS011;328;50.086;8.576;2022-12-29T14:02:10;1.83;;;0.67;;
691;SDS011;328;50.086;8.576;2022-12-29T14:04:55;1.43;;;1.00;;
691;SDS011;328;50.086;8.576;2022-12-29T14:07:23;1.97;;;0.80;;
691;SDS011;328;50.086;8.576;2022-12-29T14:09:51;3.00;;;1.43;;
691;SDS011;328;50.086;8.576;2022-12-29T14:12:24;2.13;;;0.90;;
691;SDS011;328;50.086;8.576;2022-12-29T14:15:03;1.30;;;0.70;;
691;SDS011;328;50.086;8.576;2022-12-29T14:17:32;3.57;;;0.80;;
691;SDS011;328;50.086;8.576;2022-12-29T14:20:00;1.63;;;0.80;;
691;SDS011;328;50.086;8.576;2022-12-29T14:22:28;2.30;;;0.93;;
691;SDS011;328;50.086;8.576;2022-12-29T14:24:58;2.87;;;1.00;;
691;SDS011;328;50.086;8.576;2022-12-29T14:27:52;2.00;;;0.80;;
691;SDS011;328;50.086;8.576;2022-12-29T14:33:26;3.17;;;1.50;;
691;SDS011;328;50.086;8.576;2022-12-29T14:35:55;5.67;;;0.83;;
691;SDS011;328;50.086;8.576;2022-12-29T14:38:29;2.10;;;0.90;;
691;SDS011;328;50.086;8.576;2022-12-29T14:44:02;1.37;;;0.80;;
691;SDS011;328;50.086;8.576;2022-12-29T14:46:45;1.77;;;0.87;;
691;SDS011;328;50.086;8.576;2022-12-29T14:49:16;1.30;;;0.67;;
691;SDS011;328;50.086;8.576;2022-12-29T14:51:46;2.13;;;0.80;;
691;SDS011;328;50.086;8.576;2022-12-29T14:57:21;2.03;;;0.90;;
691;SDS011;328;50.086;8.576;2022-12-29T14:59:54;2.80;;;0.73;;
691;SDS011;328;50.086;8.576;2022-12-29T15:02:26;3.33;;;1.03;;
691;SDS011;328;50.086;8.576;2022-12-29T15:05:00;2.93;;;1.67;;
691;SDS011;328;50.086;8.576;2022-12-29T15:07:29;3.87;;;1.00;;
691;SDS011;328;50.086;8.576;2022-12-29T15:09:59;2.77;;;1.03;;
691;SDS011;328;50.086;8.576;2022-12-29T15:12:33;4.27;;;1.30;;
691;SDS011;328;50.086;8.576;2022-12-29T15:15:16;4.80;;;1.33;;
691;SDS011;328;50.086;8.576;2022-12-29T15:17:45;3.63;;;1.63;;
691;SDS011;328;50.086;8.576;2022-12-29T15:20:23;4.03;;;0.90;;
691;SDS011;328;50.086;8.576;2022-12-29T15:22:53;1.03;;;0.70;;
691;SDS011;328;50.086;8.576;2022-12-29T15:25:23;1.17;;;0.67;;
691;SDS011;328;50.086;8.576;2022-12-29T15:27:51;1.17;;;0.77;;
691;SDS011;328;50.086;8.576;2022-12-29T15:30:21;3.13;;;0.60;;
691;SDS011;328;50.086;8.576;2022-12-29T15:32:49;1.20;;;0.77;;
691;SDS011;328;50.086;8.576;2022-12-29T15:35:31;1.37;;;0.77;;
691;SDS011;328;50.086;8.576;2022-12-29T15:38:11;3.83;;;1.93;;
691;SDS011;328;50.086;8.576;2022-12-29T15:40:40;1.70;;;0.80;;
691;SDS011;328;50.086;8.576;2022-12-29T15:43:14;1.97;;;0.97;;
691;SDS011;328;50.086;8.576;2022-12-29T15:45:52;4.20;;;0.70;;
691;SDS011;328;50.086;8.576;2022-12-29T15:48:22;3.40;;;0.70;;
691;SDS011;328;50.086;8.576;2022-12-29T15:50:50;2.50;;;0.90;;
691;SDS011;328;50.086;8.576;2022-12-29T15:53:19;2.50;;;0.90;;
691;SDS011;328;50.086;8.576;2022-12-29T15:55:50;1.67;;;0.90;;
691;SDS011;328;50.086;8.576;2022-12-29T15:58:25;4.27;;;1.40;;
691;SDS011;328;50.086;8.576;2022-12-29T16:00:56;4.43;;;1.33;;
691;SDS011;328;50.086;8.576;2022-12-29T16:03:25;3.90;;;0.93;;
691;SDS011;328;50.086;8.576;2022-12-29T16:05:54;4.13;;;1.20;;
691;SDS011;328;50.086;8.576;2022-12-29T16:08:31;1.63;;;0.70;;
691;SDS011;328;50.086;8.576;2022-12-29T16:11:04;3.13;;;0.80;;
691;SDS011;328;50.086;8.576;2022-12-29T16:13:37;1.60;;;0.60;;
691;SDS011;328;50.086;8.576;2022-12-29T16:16:08;2.07;;;0.73;;
691;SDS011;328;50.086;8.576;2022-12-29T16:18:41;4.60;;;0.80;;
691;SDS011;328;50.086;8.576;2022-12-29T16:21:14;7.23;;;1.07;;
691;SDS011;328;50.086;8.576;2022-12-29T16:23:44;4.03;;;1.20;;